• Join FlightAware (Why Join?)
  • Login
  • US Flag 
11:20PM EDT


 

Airport Tracker/Info


-or-


 

Live Flight TrackerFlight Track Log ✈ CSN6406 ✈ 26-Oct-2013 ✈ ZSQD / TAO - ZGKL / KWL

Flight Track Log - Related Links

Times and Time Zones

All times are in EDT time to prevent confusion due to time zone crossing. See the CSN6406 flight status page for this flight to view local times or setup timezone preferences in your user account.

Time Position Orientation Groundspeed Altitude Reporting Facility
EDT Latitude Longitude Course Direction KTS MPH feet Rate Location/Type
09:56AM 36.1894 120.2901 222° Southwest  Level Estimated
09:57AM 36.1125 120.2059 222° Southwest  Level Estimated
09:58AM 36.0357 120.1219 221° Southwest  Level Estimated
09:59AM 35.9587 120.0381 221° Southwest  Level Estimated
10:00AM 35.8817 119.9544 221° Southwest  Level Estimated
10:01AM 35.8047 119.8709 221° Southwest  Level Estimated
10:02AM 35.7276 119.7875 221° Southwest  Level Estimated
10:03AM 35.6504 119.7043 221° Southwest  Level Estimated
10:04AM 35.5732 119.6213 221° Southwest  Level Estimated
10:05AM 35.4959 119.5384 221° Southwest  Level Estimated
10:06AM 35.4186 119.4557 221° Southwest  Level Estimated
10:07AM 35.3412 119.3731 221° Southwest  Level Estimated
10:08AM 35.2638 119.2907 221° Southwest  Level Estimated
10:09AM 35.1863 119.2085 221° Southwest  Level Estimated
10:10AM 35.1087 119.1264 221° Southwest  Level Estimated
10:11AM 35.0311 119.0444 221° Southwest  Level Estimated
10:12AM 34.9535 118.9627 221° Southwest  Level Estimated
10:13AM 34.8758 118.8811 221° Southwest  Level Estimated
10:14AM 34.7980 118.7996 221° Southwest  Level Estimated
10:15AM 34.7201 118.7183 221° Southwest  Level Estimated
10:16AM 34.6423 118.6371 221° Southwest  Level Estimated
10:17AM 34.5643 118.5561 221° Southwest  Level Estimated
10:18AM 34.4863 118.4753 221° Southwest  Level Estimated
10:19AM 34.4083 118.3946 220° Southwest  Level Estimated
10:20AM 34.3302 118.3140 220° Southwest  Level Estimated
10:21AM 34.2520 118.2336 220° Southwest  Level Estimated
10:22AM 34.1739 118.1534 220° Southwest  Level Estimated
10:23AM 34.0956 118.0733 220° Southwest  Level Estimated
10:24AM 34.0173 117.9933 220° Southwest  Level Estimated
10:25AM 33.9389 117.9135 220° Southwest  Level Estimated
10:26AM 33.8605 117.8338 220° Southwest  Level Estimated
10:27AM 33.7821 117.7543 220° Southwest  Level Estimated
10:28AM 33.7036 117.6749 220° Southwest  Level Estimated
10:29AM 33.6250 117.5957 220° Southwest  Level Estimated
10:30AM 33.5464 117.5166 220° Southwest  Level Estimated
10:31AM 33.4677 117.4377 220° Southwest  Level Estimated
10:32AM 33.3890 117.3589 220° Southwest  Level Estimated
10:33AM 33.3103 117.2803 220° Southwest  Level Estimated
10:34AM 33.2314 117.2018 220° Southwest  Level Estimated
10:35AM 33.1526 117.1234 220° Southwest  Level Estimated
10:36AM 33.0737 117.0452 220° Southwest  Level Estimated
10:37AM 32.9947 116.9671 220° Southwest  Level Estimated
10:38AM 32.9157 116.8891 220° Southwest  Level Estimated
10:39AM 32.8367 116.8113 220° Southwest  Level Estimated
10:39AM 34.4820 114.6720 220° Southwest 446 513 27,600  Level FlightAware
10:40AM 32.7576 116.7336 220° Southwest  Level Estimated
10:40AM 34.3960 114.6640 184° South 446 513 27,600  Level FlightAware
10:40AM 34.3490 114.6590 185° South 446 513 27,600  Level FlightAware
10:41AM 34.2810 114.6520 185° South 446 513 27,600  Level FlightAware
10:42AM 34.2000 114.6430 185° South 446 513 27,600  Level FlightAware
10:42AM 34.1370 114.6370 185° South 446 513 27,600  Level FlightAware
10:43AM 34.0730 114.6300 185° South 446 513 27,600  Level FlightAware
10:44AM 34.0080 114.6230 185° South 446 513 27,600  Level FlightAware
10:44AM 33.9450 114.6160 185° South 446 513 27,600  Level FlightAware
10:47AM 33.7385 114.4966 206° Southwest  Level Estimated
10:48AM 33.6460 114.4434 206° Southwest  Level Estimated
10:49AM 33.5535 114.3902 206° Southwest  Level Estimated
10:50AM 33.4609 114.3372 206° Southwest  Level Estimated
10:51AM 33.3684 114.2842 206° Southwest  Level Estimated
10:52AM 33.2758 114.2314 205° Southwest  Level Estimated
10:53AM 33.1832 114.1787 205° Southwest  Level Estimated
10:54AM 33.0906 114.1261 205° Southwest  Level Estimated
10:55AM 32.9979 114.0736 205° Southwest  Level Estimated
10:56AM 32.9052 114.0213 205° Southwest  Level Estimated
10:57AM 32.8125 113.9690 205° Southwest  Level Estimated
10:58AM 32.7198 113.9169 205° Southwest  Level Estimated
10:59AM 32.6271 113.8648 205° Southwest  Level Estimated
11:00AM 32.5343 113.8129 205° Southwest  Level Estimated
11:01AM 32.4415 113.7611 205° Southwest  Level Estimated
11:02AM 32.3487 113.7093 205° Southwest  Level Estimated
11:03AM 32.2559 113.6577 205° Southwest  Level Estimated
11:04AM 32.1631 113.6062 205° Southwest  Level Estimated
11:05AM 32.0702 113.5548 205° Southwest  Level Estimated
11:06AM 31.9773 113.5035 205° Southwest  Level Estimated
11:07AM 31.8844 113.4523 205° Southwest  Level Estimated
11:08AM 31.7915 113.4012 205° Southwest  Level Estimated
11:09AM 31.6985 113.3502 205° Southwest  Level Estimated
11:10AM 31.6056 113.2993 205° Southwest  Level Estimated
11:11AM 31.5126 113.2486 205° Southwest  Level Estimated
11:12AM 31.4195 113.1979 205° Southwest  Level Estimated
11:13AM 31.3265 113.1473 205° Southwest  Level Estimated
11:14AM 31.2335 113.0968 205° Southwest  Level Estimated
11:15AM 31.1404 113.0464 205° Southwest  Level Estimated
11:16AM 31.0473 112.9961 205° Southwest  Level Estimated
11:17AM 30.9542 112.9459 205° Southwest  Level Estimated
11:18AM 30.8611 112.8958 205° Southwest  Level Estimated
11:19AM 30.7679 112.8458 205° Southwest  Level Estimated
11:20AM 30.6748 112.7959 205° Southwest  Level Estimated
11:21AM 30.5816 112.7461 205° Southwest  Level Estimated
11:22AM 30.4884 112.6964 205° Southwest  Level Estimated
11:23AM 30.3952 112.6468 205° Southwest  Level Estimated
11:24AM 30.3019 112.5973 205° Southwest  Level Estimated
11:25AM 30.2087 112.5479 205° Southwest  Level Estimated
11:26AM 30.1154 112.4985 205° Southwest  Level Estimated
11:27AM 30.0221 112.4493 205° Southwest  Level Estimated
11:28AM 29.9288 112.4002 205° Southwest  Level Estimated
11:29AM 29.8354 112.3511 205° Southwest  Level Estimated
11:30AM 29.7421 112.3021 204° Southwest  Level Estimated
11:31AM 29.6487 112.2533 204° Southwest  Level Estimated
11:32AM 29.5553 112.2045 204° Southwest  Level Estimated
11:33AM 29.4619 112.1558 204° Southwest  Level Estimated
11:34AM 29.3685 112.1072 204° Southwest  Level Estimated
11:35AM 29.2751 112.0587 204° Southwest  Level Estimated
11:36AM 29.1816 112.0103 204° Southwest  Level Estimated
11:37AM 29.0881 111.9620 204° Southwest  Level Estimated
11:38AM 28.9946 111.9137 204° Southwest  Level Estimated
11:39AM 28.9011 111.8655 204° Southwest  Level Estimated
11:40AM 28.8076 111.8175 204° Southwest  Level Estimated
11:41AM 28.7141 111.7695 204° Southwest  Level Estimated
11:42AM 28.6205 111.7216 204° Southwest  Level Estimated
11:43AM 28.5269 111.6738 204° Southwest  Level Estimated
11:44AM 28.4333 111.6261 204° Southwest  Level Estimated
11:45AM 28.3397 111.5784 204° Southwest  Level Estimated
11:46AM 28.2461 111.5309 204° Southwest  Level Estimated
11:47AM 28.1525 111.4834 204° Southwest  Level Estimated
11:48AM 28.0588 111.4360 204° Southwest  Level Estimated
11:49AM 27.9651 111.3887 204° Southwest  Level Estimated
11:50AM 27.8714 111.3415 204° Southwest  Level Estimated
11:51AM 27.7777 111.2943 204° Southwest  Level Estimated
11:52AM 27.6840 111.2472 204° Southwest  Level Estimated
11:53AM 27.5903 111.2002 204° Southwest  Level Estimated
11:54AM 27.4965 111.1533 204° Southwest  Level Estimated
11:55AM 27.4027 111.1065 204° Southwest  Level Estimated
11:56AM 27.3089 111.0598 204° Southwest  Level Estimated
11:57AM 27.2151 111.0131 204° Southwest  Level Estimated
11:58AM 27.1213 110.9665 204° Southwest  Level Estimated
11:59AM 27.0275 110.9200 204° Southwest  Level Estimated
12:00PM 26.9336 110.8736 204° Southwest  Level Estimated
12:01PM 26.8398 110.8272 204° Southwest  Level Estimated
12:02PM 26.7459 110.7809 204° Southwest  Level Estimated
12:03PM 26.6520 110.7347 204° Southwest  Level Estimated
12:04PM 26.5581 110.6886 204° Southwest  Level Estimated
12:05PM 26.4642 110.6425 204° Southwest  Level Estimated
12:06PM 26.3702 110.5966 204° Southwest  Level Estimated
12:07PM 26.2763 110.5507 204° Southwest  Level Estimated
12:08PM 26.1823 110.5048 204° Southwest  Level Estimated
12:09PM 26.0883 110.4591 204° Southwest  Level Estimated
12:10PM 25.9943 110.4134 204° Southwest  Level Estimated
12:11PM 25.9003 110.3678 204° Southwest  Level Estimated
12:12PM 25.8063 110.3223 204° Southwest  Level Estimated
12:13PM 25.7123 110.2768 204° Southwest  Level Estimated
12:14PM 25.6182 110.2314 204° Southwest  Level Estimated
12:15PM 25.5241 110.1861 203° Southwest  Level Estimated
12:16PM 25.4301 110.1408 203° Southwest  Level Estimated
12:17PM 25.3360 110.0957 203° Southwest  Level Estimated
12:18PM 25.2418 110.0506 203° Southwest  Level Estimated
12:19PM 25.2181 110.0392 203° Southwest  Level Estimated
12:20PM 25.2181 110.0392 214° Southwest  Level Estimated
12:21PM 25.2181 110.0392 214° Southwest  Level Estimated
12:22PM 25.2181 110.0392 214° Southwest  Level Estimated
12:23PM 25.2181 110.0392 214° Southwest  Level Estimated
12:24PM 25.2181 110.0392 214° Southwest  Level Estimated
12:25PM 25.2181 110.0392 214° Southwest  Level Estimated
12:26PM 25.2181 110.0392 214° Southwest  Level Estimated
12:27PM 25.2181 110.0392 214° Southwest  Level Estimated
12:28PM 25.2181 110.0392 214° Southwest  Level Estimated